Time;durP1;ratioP1;P1;durP2;ratioP2;P2;SDS_P1;SDS_P2;PMS_P1;PMS_P2;Temp;Humidity;BMP_temperature;BMP_pressure;BME280_temperature;BME280_humidity;BME280_pressure;Samples;Min_cycle;Max_cycle;Signal;HPM_P1;HPM_P2
2021/04/06 00:01:49;;;;;;;20.80;1.50;;;2.20;95.10;;;;;;4914101;28;20515;-84
2021/04/06 00:04:21;;;;;;;11.00;1.30;;;2.20;95.10;;;;;;4914072;29;20058;-85
2021/04/06 00:06:53;;;;;;;21.15;1.70;;;2.10;95.10;;;;;;4913484;29;20036;-85
2021/04/06 00:09:21;;;;;;;16.30;1.10;;;2.10;95.10;;;;;;4908143;28;20170;-84
2021/04/06 00:11:48;;;;;;;13.20;0.82;;;2.10;95.10;;;;;;4914002;29;20126;-84
2021/04/06 00:14:16;;;;;;;14.95;0.90;;;2.10;95.10;;;;;;4928778;29;20028;-84
2021/04/06 00:16:43;;;;;;;16.77;1.25;;;2.10;95.10;;;;;;4995064;28;20135;-84
2021/04/06 00:19:14;;;;;;;15.82;0.88;;;2.10;95.10;;;;;;4911543;29;20028;-84
2021/04/06 00:21:40;;;;;;;15.75;1.70;;;2.10;94.80;;;;;;4912288;29;20147;-85
2021/04/06 00:24:07;;;;;;;17.10;1.55;;;2.20;94.60;;;;;;4914602;29;20068;-83
2021/04/06 00:26:54;;;;;;;17.73;1.23;;;2.20;94.50;;;;;;4913048;29;20075;-84
2021/04/06 00:29:24;;;;;;;20.60;1.48;;;2.20;94.50;;;;;;4904357;29;20395;-84
2021/04/06 00:31:55;;;;;;;11.32;0.80;;;2.20;94.50;;;;;;4906063;29;20028;-84
2021/04/06 00:34:22;;;;;;;11.73;0.85;;;2.20;94.40;;;;;;4907809;29;20029;-84
2021/04/06 00:36:56;;;;;;;12.68;0.77;;;2.20;94.40;;;;;;4912479;29;20067;-84
2021/04/06 00:39:31;;;;;;;17.83;2.35;;;2.20;94.40;;;;;;4911686;29;20086;-84
2021/04/06 00:42:09;;;;;;;17.98;1.25;;;2.20;94.40;;;;;;4912389;29;20055;-84
2021/04/06 00:44:56;;;;;;;19.70;2.45;;;2.20;94.40;;;;;;4913029;29;20029;-84
2021/04/06 00:47:29;;;;;;;16.75;1.45;;;2.20;94.40;;;;;;4912832;29;20039;-84
2021/04/06 00:50:05;;;;;;;9.60;0.90;;;2.20;94.40;;;;;;4900386;29;20035;-84
2021/04/06 00:52:32;;;;;;;21.27;1.45;;;2.20;94.50;;;;;;4910948;28;20370;-84
2021/04/06 00:54:58;;;;;;;15.52;1.33;;;2.20;94.50;;;;;;4928531;29;20086;-84
2021/04/06 00:57:28;;;;;;;17.65;0.93;;;2.30;94.50;;;;;;4912182;29;20055;-84
2021/04/06 01:00:26;;;;;;;14.40;1.05;;;2.30;94.40;;;;;;4912260;28;20052;-84
2021/04/06 01:03:00;;;;;;;16.70;1.05;;;2.40;94.40;;;;;;4895062;29;20040;-84
2021/04/06 01:05:27;;;;;;;14.45;0.85;;;2.40;94.30;;;;;;4905979;29;20060;-84
2021/04/06 01:07:54;;;;;;;12.73;1.20;;;2.40;94.10;;;;;;4910407;29;20058;-83
2021/04/06 01:10:23;;;;;;;17.60;1.20;;;2.20;93.90;;;;;;4914755;29;20116;-83
2021/04/06 01:12:48;;;;;;;10.65;1.00;;;2.00;93.70;;;;;;4915546;29;20032;-83
2021/04/06 01:15:15;;;;;;;9.05;1.77;;;1.80;94.20;;;;;;4915052;28;20032;-83
2021/04/06 01:17:41;;;;;;;11.15;0.60;;;1.70;94.50;;;;;;4915231;29;20488;-84
2021/04/06 01:20:13;;;;;;;14.43;1.20;;;1.60;94.60;;;;;;4905438;29;20035;-83
2021/04/06 01:22:40;;;;;;;22.23;1.95;;;1.60;94.80;;;;;;4915593;29;20494;-84
2021/04/06 01:25:14;;;;;;;16.98;1.25;;;1.50;94.90;;;;;;4916245;29;20051;-84
2021/04/06 01:27:39;;;;;;;15.20;1.50;;;1.50;95.10;;;;;;4911305;28;20025;-84
2021/04/06 01:30:06;;;;;;;17.42;1.30;;;1.50;95.20;;;;;;4904879;28;20040;-84
2021/04/06 01:32:31;;;;;;;21.05;1.77;;;1.60;95.30;;;;;;4908334;29;20040;-84
2021/04/06 01:34:58;;;;;;;14.23;1.35;;;1.60;95.50;;;;;;4915173;28;20508;-85
2021/04/06 01:37:25;;;;;;;17.73;1.75;;;1.60;95.60;;;;;;4915013;28;20411;-84
2021/04/06 01:39:54;;;;;;;13.57;1.30;;;1.60;95.50;;;;;;4916169;29;20032;-84
2021/04/06 01:42:24;;;;;;;20.13;1.48;;;1.70;95.60;;;;;;4916325;29;20024;-84
2021/04/06 01:44:52;;;;;;;13.40;1.13;;;1.70;95.60;;;;;;4915450;29;20128;-85
2021/04/06 01:47:18;;;;;;;16.85;0.80;;;1.80;95.50;;;;;;4916194;29;20051;-85
2021/04/06 01:49:44;;;;;;;20.83;1.80;;;1.90;95.50;;;;;;4915954;29;20020;-85
2021/04/06 01:52:11;;;;;;;17.00;1.77;;;1.90;95.50;;;;;;4916621;29;20389;-85
2021/04/06 01:54:39;;;;;;;14.52;1.98;;;1.90;95.30;;;;;;4930879;28;20481;-85
2021/04/06 01:57:15;;;;;;;13.02;1.83;;;1.90;95.10;;;;;;4909955;29;20110;-84
2021/04/06 01:59:46;;;;;;;18.77;1.60;;;1.80;95.10;;;;;;4917672;28;20107;-85
2021/04/06 02:02:12;;;;;;;18.70;1.33;;;1.80;95.20;;;;;;4930727;29;20373;-85
2021/04/06 02:04:41;;;;;;;13.23;1.25;;;1.70;95.20;;;;;;4903909;29;20051;-85
2021/04/06 02:07:09;;;;;;;14.38;2.47;;;1.70;95.30;;;;;;4902376;29;20028;-85
2021/04/06 02:09:34;;;;;;;19.63;1.77;;;1.60;95.40;;;;;;4906772;29;20025;-85
2021/04/06 02:12:00;;;;;;;22.50;2.17;;;1.70;95.50;;;;;;4903974;29;20052;-85
2021/04/06 02:14:26;;;;;;;13.32;1.25;;;1.70;95.40;;;;;;4901646;28;20476;-85
2021/04/06 02:16:57;;;;;;;18.17;3.00;;;1.60;95.10;;;;;;4914792;29;20537;-84
2021/04/06 02:19:31;;;;;;;15.32;1.15;;;1.60;95.10;;;;;;4913602;29;20029;-85
2021/04/06 02:22:09;;;;;;;22.20;1.50;;;1.50;95.00;;;;;;4912296;29;20032;-85
2021/04/06 02:24:43;;;;;;;14.15;1.35;;;1.50;95.00;;;;;;4906140;29;20488;-84
2021/04/06 02:27:21;;;;;;;15.63;1.67;;;1.50;95.00;;;;;;4915388;29;20028;-84
2021/04/06 02:29:58;;;;;;;13.20;2.50;;;1.40;95.10;;;;;;4909434;29;20017;-84
2021/04/06 02:32:34;;;;;;;26.20;1.52;;;1.40;95.00;;;;;;4897276;28;20039;-84
2021/04/06 02:35:09;;;;;;;12.50;1.23;;;1.30;95.10;;;;;;4914350;29;20485;-84
2021/04/06 02:37:36;;;;;;;19.90;1.00;;;1.40;95.10;;;;;;4914886;29;20082;-84
2021/04/06 02:40:08;;;;;;;7.78;0.80;;;1.40;95.00;;;;;;4913513;29;20036;-84
2021/04/06 02:42:39;;;;;;;17.45;1.25;;;1.30;95.00;;;;;;4908196;29;20488;-84
2021/04/06 02:45:30;;;;;;;20.48;1.50;;;1.30;94.90;;;;;;4927955;29;20399;-84
2021/04/06 02:48:05;;;;;;;21.00;1.80;;;1.30;94.90;;;;;;4910342;29;20032;-84
2021/04/06 02:50:32;;;;;;;11.35;1.23;;;1.20;94.80;;;;;;4914243;28;20063;-84
2021/04/06 02:52:59;;;;;;;14.73;1.40;;;1.20;94.80;;;;;;4929936;29;20108;-84
2021/04/06 02:55:25;;;;;;;14.75;1.48;;;1.10;94.80;;;;;;4896996;29;20460;-84
2021/04/06 02:57:53;;;;;;;14.13;1.10;;;1.10;94.80;;;;;;4906349;29;20431;-84
2021/04/06 03:00:28;;;;;;;19.20;1.52;;;1.10;94.90;;;;;;4910462;28;20060;-84
2021/04/06 03:03:01;;;;;;;19.40;0.80;;;1.00;94.80;;;;;;4910848;29;20384;-84
2021/04/06 03:05:32;;;;;;;15.75;1.15;;;1.00;94.90;;;;;;4914042;29;20025;-84
2021/04/06 03:07:59;;;;;;;17.13;1.58;;;1.00;94.90;;;;;;4919809;29;20028;-84
2021/04/06 03:10:25;;;;;;;15.82;1.00;;;1.00;94.90;;;;;;4913330;29;20032;-84
2021/04/06 03:12:51;;;;;;;11.38;1.60;;;1.00;94.90;;;;;;4912970;29;20480;-84
2021/04/06 03:15:27;;;;;;;12.50;0.85;;;1.00;94.80;;;;;;4898159;29;20039;-84
2021/04/06 03:17:55;;;;;;;9.20;0.90;;;1.10;94.60;;;;;;4921403;29;20132;-83
2021/04/06 03:20:23;;;;;;;11.90;0.70;;;1.10;94.50;;;;;;4914983;29;20467;-83
2021/04/06 03:22:50;;;;;;;15.50;1.88;;;1.10;94.50;;;;;;4912057;29;20132;-83
2021/04/06 03:25:16;;;;;;;16.65;0.93;;;1.10;94.40;;;;;;4908125;29;20029;-83
2021/04/06 03:27:44;;;;;;;11.13;1.02;;;1.20;94.30;;;;;;4911554;29;20024;-84
2021/04/06 03:30:10;;;;;;;7.78;0.77;;;1.30;94.20;;;;;;4929286;28;20082;-84
2021/04/06 03:32:36;;;;;;;7.35;0.88;;;1.40;94.00;;;;;;4912498;29;20127;-83
2021/04/06 03:35:02;;;;;;;7.85;0.70;;;1.40;93.80;;;;;;4938592;29;20034;-84
2021/04/06 03:37:28;;;;;;;6.28;0.40;;;1.50;93.50;;;;;;4915976;29;20036;-83
2021/04/06 03:39:54;;;;;;;3.95;0.30;;;1.30;93.30;;;;;;4913074;29;20385;-83
2021/04/06 03:42:27;;;;;;;5.55;0.35;;;1.00;93.70;;;;;;4913762;29;20088;-84
2021/04/06 03:45:10;;;;;;;4.32;0.22;;;0.80;94.30;;;;;;4913599;29;20028;-83
2021/04/06 03:47:51;;;;;;;3.47;0.30;;;0.70;94.70;;;;;;4911334;29;20404;-83
2021/04/06 03:50:31;;;;;;;4.75;0.30;;;0.70;95.00;;;;;;4912241;29;20070;-83
2021/04/06 03:53:04;;;;;;;5.50;0.40;;;0.70;95.30;;;;;;4928744;29;20024;-84
2021/04/06 03:55:30;;;;;;;8.68;0.40;;;0.70;95.40;;;;;;4903556;29;20028;-84
2021/04/06 03:58:16;;;;;;;9.57;1.38;;;0.70;95.40;;;;;;4897563;29;20119;-83
2021/04/06 04:00:42;;;;;;;5.68;0.43;;;0.70;95.40;;;;;;4912710;29;20087;-83
2021/04/06 04:03:08;;;;;;;7.78;1.13;;;0.70;95.40;;;;;;4912129;29;20033;-84
2021/04/06 04:05:33;;;;;;;3.88;0.20;;;0.60;95.30;;;;;;4913257;29;20396;-83
2021/04/06 04:08:00;;;;;;;9.25;0.40;;;0.60;95.40;;;;;;4914675;29;20025;-83
2021/04/06 04:10:26;;;;;;;8.50;0.68;;;0.60;95.50;;;;;;4913275;29;20033;-84
2021/04/06 04:12:51;;;;;;;7.10;1.00;;;0.60;95.60;;;;;;4912466;29;20039;-84
2021/04/06 04:15:17;;;;;;;4.10;0.52;;;0.60;95.50;;;;;;4894801;28;20151;-84
2021/04/06 04:17:46;;;;;;;4.88;0.45;;;0.60;95.50;;;;;;4899002;29;20040;-84
2021/04/06 04:20:14;;;;;;;4.78;0.40;;;0.50;95.50;;;;;;4912391;29;20039;-84
2021/04/06 04:22:40;;;;;;;3.58;0.40;;;0.50;95.50;;;;;;4901573;29;20404;-84
2021/04/06 04:25:08;;;;;;;8.23;0.57;;;0.40;95.50;;;;;;4907542;28;20024;-83
2021/04/06 04:27:33;;;;;;;7.18;0.30;;;0.40;95.50;;;;;;4927832;29;20039;-84
2021/04/06 04:29:59;;;;;;;10.02;0.50;;;0.30;95.50;;;;;;4903356;29;20017;-84
2021/04/06 04:32:24;;;;;;;5.32;0.47;;;0.30;95.60;;;;;;4905659;28;20485;-84
2021/04/06 04:34:50;;;;;;;6.47;0.40;;;0.20;95.60;;;;;;4911044;28;20444;-84
2021/04/06 04:37:16;;;;;;;5.68;0.50;;;0.20;95.70;;;;;;4905393;29;20449;-83
2021/04/06 04:39:42;;;;;;;8.55;0.50;;;0.20;95.70;;;;;;4909694;29;20382;-84
2021/04/06 04:42:07;;;;;;;6.95;1.52;;;0.20;96.00;;;;;;4899858;29;20571;-84
2021/04/06 04:44:33;;;;;;;4.72;0.43;;;0.20;95.80;;;;;;4927543;28;20123;-84
2021/04/06 04:46:58;;;;;;;8.27;0.55;;;0.30;95.90;;;;;;4916513;28;20043;-84
2021/04/06 04:49:24;;;;;;;8.93;0.57;;;0.30;96.10;;;;;;4916185;29;20057;-84
2021/04/06 04:51:50;;;;;;;10.85;1.85;;;0.40;96.00;;;;;;4915492;29;20119;-84
2021/04/06 04:54:15;;;;;;;14.63;0.55;;;0.50;95.90;;;;;;4916061;29;20038;-84
2021/04/06 04:56:41;;;;;;;13.80;0.60;;;0.50;96.00;;;;;;4914722;29;20048;-84
2021/04/06 04:59:06;;;;;;;11.10;0.95;;;0.50;95.90;;;;;;4913610;28;20040;-84
2021/04/06 05:01:32;;;;;;;15.48;0.82;;;0.50;95.80;;;;;;4901239;29;20040;-84
2021/04/06 05:03:57;;;;;;;12.45;0.70;;;0.50;95.80;;;;;;4909448;28;20034;-84
2021/04/06 05:06:23;;;;;;;8.32;0.50;;;0.50;95.70;;;;;;4909559;29;20550;-84
2021/04/06 05:08:49;;;;;;;9.13;0.80;;;0.50;95.70;;;;;;4911937;28;20098;-84
2021/04/06 05:11:14;;;;;;;21.73;2.97;;;0.50;95.80;;;;;;4915357;28;20060;-84
2021/04/06 05:13:40;;;;;;;13.68;0.80;;;0.50;95.80;;;;;;4907866;29;20032;-84
2021/04/06 05:16:06;;;;;;;9.18;0.50;;;0.50;95.80;;;;;;4903736;29;20040;-84
2021/04/06 05:18:31;;;;;;;7.18;1.02;;;0.60;95.80;;;;;;4913461;29;20556;-84
2021/04/06 05:20:57;;;;;;;10.55;0.93;;;0.60;95.70;;;;;;4910888;28;20024;-84
2021/04/06 05:23:22;;;;;;;8.07;0.70;;;0.70;95.60;;;;;;4915224;29;20078;-84
2021/04/06 05:25:48;;;;;;;13.85;0.73;;;0.70;95.60;;;;;;4913954;29;20048;-84
2021/04/06 05:28:13;;;;;;;11.80;1.67;;;0.60;95.70;;;;;;4914447;29;20075;-84
2021/04/06 05:30:39;;;;;;;11.05;0.80;;;0.70;95.40;;;;;;4911974;28;20024;-83
2021/04/06 05:33:05;;;;;;;9.80;0.82;;;0.70;95.30;;;;;;4909248;28;20110;-84
2021/04/06 05:35:31;;;;;;;13.98;1.00;;;0.70;95.20;;;;;;4902173;28;20025;-84
2021/04/06 05:37:56;;;;;;;6.82;0.98;;;0.70;95.20;;;;;;4915659;28;20506;-84
2021/04/06 05:40:22;;;;;;;13.18;0.50;;;0.60;95.20;;;;;;4911859;28;20388;-84
2021/04/06 05:42:48;;;;;;;10.85;0.70;;;0.70;95.20;;;;;;4914418;29;20032;-84
2021/04/06 05:45:13;;;;;;;6.53;0.55;;;0.70;95.20;;;;;;4911976;28;20035;-85
2021/04/06 05:47:44;;;;;;;9.30;0.50;;;0.70;95.10;;;;;;4909898;28;20183;-84
2021/04/06 05:50:09;;;;;;;2.78;0.60;;;0.80;95.10;;;;;;4910444;29;20137;-83
2021/04/06 05:52:35;;;;;;;7.47;0.82;;;0.80;94.90;;;;;;4909868;28;20029;-84
2021/04/06 05:55:04;;;;;;;6.63;0.40;;;0.80;94.80;;;;;;4907327;29;20024;-84
2021/04/06 05:57:30;;;;;;;4.05;0.40;;;0.80;94.50;;;;;;4912738;29;20051;-84
2021/04/06 05:59:55;;;;;;;7.53;0.40;;;0.90;94.50;;;;;;4913360;28;20040;-83
2021/04/06 06:02:21;;;;;;;9.65;0.50;;;0.90;94.40;;;;;;4910957;28;20088;-84
2021/04/06 06:04:47;;;;;;;7.32;1.33;;;0.90;94.40;;;;;;4915662;29;20054;-83
2021/04/06 06:07:13;;;;;;;5.93;0.50;;;1.00;94.50;;;;;;4908130;29;20484;-85
2021/04/06 06:09:39;;;;;;;9.55;0.47;;;1.00;94.50;;;;;;4916220;29;20388;-82
2021/04/06 06:12:10;;;;;;;4.35;0.38;;;1.00;94.60;;;;;;4915374;29;20127;-82
2021/04/06 06:14:41;;;;;;;5.63;0.40;;;1.10;94.60;;;;;;4915727;29;20036;-82
2021/04/06 06:17:21;;;;;;;6.32;0.30;;;1.10;94.50;;;;;;4928536;28;20044;-82
2021/04/06 06:19:49;;;;;;;4.78;0.75;;;1.10;94.50;;;;;;4915106;28;20025;-85
2021/04/06 06:22:23;;;;;;;8.23;0.70;;;1.20;94.50;;;;;;4915636;28;20039;-83
2021/04/06 06:25:00;;;;;;;5.38;0.60;;;1.30;94.50;;;;;;4932316;29;20033;-82
2021/04/06 06:27:38;;;;;;;4.38;0.60;;;1.40;94.30;;;;;;4917997;29;20484;-83
2021/04/06 06:30:29;;;;;;;3.20;0.40;;;1.60;94.30;;;;;;4917291;29;20028;-82
2021/04/06 06:33:35;;;;;;;3.95;0.40;;;1.70;93.80;;;;;;4915055;29;20055;-83
2021/04/06 06:36:09;;;;;;;2.28;0.28;;;1.80;93.20;;;;;;4916281;28;20397;-82
2021/04/06 06:38:40;;;;;;;5.00;0.80;;;1.80;93.20;;;;;;4878524;29;20044;-83
2021/04/06 06:41:17;;;;;;;2.28;0.20;;;1.70;93.30;;;;;;4896741;28;20060;-84
2021/04/06 06:43:44;;;;;;;3.92;0.30;;;1.60;93.50;;;;;;4909617;28;20043;-84
2021/04/06 06:46:22;;;;;;;2.75;0.20;;;1.50;93.60;;;;;;4930291;28;20082;-84
2021/04/06 06:49:02;;;;;;;4.05;0.40;;;1.50;93.70;;;;;;4929105;29;20043;-84
2021/04/06 06:51:36;;;;;;;6.00;0.30;;;1.40;93.90;;;;;;4930193;29;20477;-84
2021/04/06 06:54:06;;;;;;;4.03;0.40;;;1.30;94.00;;;;;;4927302;29;20404;-83
2021/04/06 06:56:39;;;;;;;2.13;0.30;;;1.30;94.30;;;;;;4912893;28;20044;-84
2021/04/06 06:59:05;;;;;;;3.45;0.30;;;1.40;94.40;;;;;;4914561;28;20063;-83
2021/04/06 07:01:33;;;;;;;7.10;0.50;;;1.40;94.50;;;;;;4912626;28;20032;-83
2021/04/06 07:04:02;;;;;;;6.43;1.05;;;1.50;94.50;;;;;;4916709;29;20020;-84
2021/04/06 07:06:28;;;;;;;5.38;0.50;;;1.60;94.60;;;;;;4911465;28;20107;-82
2021/04/06 07:08:55;;;;;;;8.30;0.70;;;1.70;94.60;;;;;;4909291;29;20468;-84
2021/04/06 07:11:21;;;;;;;5.38;0.70;;;1.90;94.40;;;;;;4914069;28;20028;-83
2021/04/06 07:13:51;;;;;;;8.85;0.80;;;2.10;94.40;;;;;;4912954;28;20048;-83
2021/04/06 07:16:19;;;;;;;3.55;0.40;;;2.30;94.20;;;;;;4913094;29;20086;-83
2021/04/06 07:18:47;;;;;;;12.07;0.60;;;2.50;93.80;;;;;;4913280;29;20103;-84
2021/04/06 07:21:13;;;;;;;4.03;0.35;;;2.50;93.00;;;;;;4912601;28;20043;-83
2021/04/06 07:23:48;;;;;;;5.32;0.52;;;2.40;92.90;;;;;;4910839;28;20052;-83
2021/04/06 07:26:19;;;;;;;7.05;0.40;;;2.40;93.20;;;;;;4912568;28;20035;-82
2021/04/06 07:28:45;;;;;;;5.25;1.00;;;2.40;93.20;;;;;;4929164;29;20060;-85
2021/04/06 07:31:12;;;;;;;6.00;0.52;;;2.40;93.40;;;;;;4909744;28;20055;-82
2021/04/06 07:33:44;;;;;;;6.25;0.80;;;2.40;93.60;;;;;;4913697;29;20028;-82
2021/04/06 07:36:12;;;;;;;5.20;0.40;;;2.50;93.20;;;;;;4911763;28;20051;-90
2021/04/06 07:38:42;;;;;;;6.55;0.52;;;2.40;93.10;;;;;;4913984;28;20059;-91
2021/04/06 07:41:09;;;;;;;14.88;0.55;;;2.40;93.20;;;;;;4913220;28;20094;-83
2021/04/06 07:43:35;;;;;;;8.43;0.60;;;2.40;93.10;;;;;;4909883;28;20033;-82
2021/04/06 07:46:00;;;;;;;5.10;0.47;;;2.30;93.00;;;;;;4911858;28;20024;-83
2021/04/06 07:48:49;;;;;;;3.83;0.47;;;2.10;93.20;;;;;;4906005;29;20522;-83
2021/04/06 07:51:30;;;;;;;14.30;0.70;;;2.00;93.50;;;;;;4926678;29;20106;-83
2021/04/06 07:53:59;;;;;;;9.25;1.05;;;2.10;94.10;;;;;;4923506;29;20028;-83
2021/04/06 07:56:46;;;;;;;9.13;0.60;;;2.20;94.40;;;;;;4913126;28;20046;-83
2021/04/06 07:59:20;;;;;;;5.40;0.82;;;2.30;94.20;;;;;;4928287;28;20147;-83
2021/04/06 08:01:53;;;;;;;7.13;0.85;;;2.30;94.00;;;;;;4925497;29;20024;-83
2021/04/06 08:04:21;;;;;;;5.20;0.50;;;2.20;93.90;;;;;;4915842;29;20039;-82
2021/04/06 08:06:52;;;;;;;11.23;2.05;;;2.10;93.90;;;;;;4910723;29;20037;-84
2021/04/06 08:09:31;;;;;;;7.57;0.80;;;2.10;94.10;;;;;;4914858;29;20219;-83
2021/04/06 08:12:19;;;;;;;5.63;0.50;;;2.10;94.30;;;;;;4914110;29;20163;-83
2021/04/06 08:15:01;;;;;;;6.55;0.40;;;2.20;94.50;;;;;;4906493;29;20087;-84
2021/04/06 08:17:26;;;;;;;9.40;0.82;;;2.30;94.60;;;;;;4913727;29;20044;-84
2021/04/06 08:19:59;;;;;;;5.60;0.70;;;2.30;94.60;;;;;;4920050;28;20032;-84
2021/04/06 08:22:26;;;;;;;;;;;2.40;94.70;;;;;;4921531;28;20106;-84
2021/04/06 08:24:52;;;;;;;9.43;0.57;;;2.40;94.90;;;;;;4920067;29;19911;-83
2021/04/06 08:27:37;;;;;;;9.68;0.90;;;2.60;94.90;;;;;;4919528;29;20036;-83
2021/04/06 08:30:24;;;;;;;7.07;0.60;;;2.80;94.80;;;;;;4917960;29;20103;-83
2021/04/06 08:32:59;;;;;;;8.35;0.68;;;2.90;94.60;;;;;;4920351;29;20027;-83
2021/04/06 08:35:43;;;;;;;7.32;0.63;;;3.20;94.20;;;;;;4917293;29;20503;-82
2021/04/06 08:38:31;;;;;;;4.72;0.60;;;3.40;93.40;;;;;;4917660;29;20064;-83
2021/04/06 08:41:10;;;;;;;4.68;0.40;;;3.40;92.40;;;;;;4919960;29;20085;-83
2021/04/06 08:43:46;;;;;;;6.97;0.40;;;3.50;92.60;;;;;;4919065;29;20033;-83
2021/04/06 08:46:24;;;;;;;4.25;0.47;;;3.60;92.60;;;;;;4919585;29;20094;-83
2021/04/06 08:48:52;;;;;;;7.20;0.57;;;3.60;92.00;;;;;;4919973;28;20036;-83
2021/04/06 08:51:37;;;;;;;4.18;0.43;;;3.70;91.70;;;;;;4919864;29;20034;-83
2021/04/06 08:54:16;;;;;;;6.25;0.50;;;3.80;91.40;;;;;;4920107;29;20044;-83
2021/04/06 08:56:45;;;;;;;3.22;0.40;;;3.80;90.60;;;;;;4905300;29;20134;-83
2021/04/06 08:59:35;;;;;;;10.45;0.63;;;3.80;90.70;;;;;;4899588;28;20048;-83
2021/04/06 09:02:13;;;;;;;7.78;0.50;;;3.90;90.60;;;;;;4916916;29;20035;-83
2021/04/06 09:04:41;;;;;;;5.63;0.50;;;3.80;90.60;;;;;;4912611;29;20020;-83
2021/04/06 09:07:21;;;;;;;5.90;0.40;;;3.90;90.40;;;;;;4913921;28;20028;-83
2021/04/06 09:09:51;;;;;;;3.35;0.43;;;4.20;90.80;;;;;;4916487;29;20032;-83
2021/04/06 09:12:16;;;;;;;7.45;0.68;;;4.50;90.70;;;;;;4919700;29;20119;-82
2021/04/06 09:14:42;;;;;;;6.65;0.45;;;4.60;90.00;;;;;;4918586;28;20446;-83
2021/04/06 09:17:08;;;;;;;5.40;0.55;;;4.80;89.40;;;;;;4918219;29;20036;-82
2021/04/06 09:19:39;;;;;;;6.60;0.63;;;4.70;89.60;;;;;;4933537;29;20021;-83
2021/04/06 09:22:11;;;;;;;11.07;0.73;;;4.70;86.80;;;;;;4916622;29;20082;-83
2021/04/06 09:24:37;;;;;;;5.28;0.43;;;4.60;86.30;;;;;;4919398;29;20099;-83
2021/04/06 09:27:04;;;;;;;7.47;0.73;;;4.70;85.70;;;;;;4918013;29;20081;-82
2021/04/06 09:29:42;;;;;;;10.93;2.33;;;4.70;83.00;;;;;;4916296;28;20047;-83
2021/04/06 09:32:11;;;;;;;8.48;0.65;;;4.90;85.10;;;;;;4928716;28;20028;-82
2021/04/06 09:34:40;;;;;;;4.68;0.70;;;4.90;81.60;;;;;;4915137;29;20028;-83
2021/04/06 09:37:20;;;;;;;7.50;0.60;;;5.00;81.60;;;;;;4915860;29;20040;-83
2021/04/06 09:39:51;;;;;;;6.43;0.98;;;5.10;80.70;;;;;;4925962;28;20031;-82
2021/04/06 09:42:18;;;;;;;7.72;1.58;;;5.10;79.60;;;;;;4933300;29;20082;-83
2021/04/06 09:44:46;;;;;;;5.68;0.40;;;5.30;80.80;;;;;;4930525;28;20032;-83
2021/04/06 09:47:15;;;;;;;5.13;0.60;;;5.50;81.90;;;;;;4937752;29;20028;-83
2021/04/06 09:49:46;;;;;;;4.97;0.60;;;5.50;82.60;;;;;;4923071;28;20081;-82
2021/04/06 09:52:13;;;;;;;7.90;0.88;;;5.40;83.60;;;;;;4912562;28;20043;-83
2021/04/06 09:54:44;;;;;;;5.75;0.50;;;5.20;82.20;;;;;;4896308;29;20381;-82
2021/04/06 09:57:11;;;;;;;8.80;0.60;;;4.80;82.70;;;;;;4914751;29;20040;-83
2021/04/06 09:59:38;;;;;;;8.82;0.70;;;4.50;84.70;;;;;;4914825;28;20052;-82
2021/04/06 10:02:05;;;;;;;6.70;0.60;;;4.20;85.60;;;;;;4913645;29;20443;-83
2021/04/06 10:04:36;;;;;;;7.80;1.55;;;4.00;86.20;;;;;;4914990;28;20028;-83
2021/04/06 10:07:30;;;;;;;9.70;0.88;;;3.90;86.90;;;;;;4914891;29;20032;-83
2021/04/06 10:10:04;;;;;;;4.32;0.47;;;3.80;86.80;;;;;;4896469;29;20040;-83
2021/04/06 10:12:31;;;;;;;4.75;0.65;;;3.50;87.30;;;;;;4929488;29;20063;-83
2021/04/06 10:14:57;;;;;;;4.40;0.40;;;3.20;87.90;;;;;;4914654;29;20021;-83
2021/04/06 10:17:43;;;;;;;4.38;0.60;;;2.90;88.70;;;;;;4914725;29;20035;-83
2021/04/06 10:20:13;;;;;;;3.42;0.40;;;2.90;90.10;;;;;;4920790;29;20144;-83
2021/04/06 10:22:39;;;;;;;3.38;0.40;;;3.00;90.30;;;;;;4929910;28;20032;-83
2021/04/06 10:25:05;;;;;;;5.38;0.60;;;3.20;90.50;;;;;;4922807;29;20033;-83
2021/04/06 10:27:43;;;;;;;5.90;0.60;;;3.40;90.50;;;;;;4914622;28;20028;-83
2021/04/06 10:30:15;;;;;;;5.45;1.02;;;3.70;90.60;;;;;;4914628;28;20032;-83
2021/04/06 10:32:43;;;;;;;7.55;0.90;;;4.00;90.60;;;;;;4913266;28;20037;-83
2021/04/06 10:35:27;;;;;;;4.72;0.95;;;4.40;90.70;;;;;;4913949;29;20028;-83
2021/04/06 10:37:56;;;;;;;7.05;0.52;;;4.70;90.30;;;;;;4913937;29;20036;-83
2021/04/06 10:40:29;;;;;;;6.03;0.60;;;4.80;89.00;;;;;;4909272;29;20043;-83
2021/04/06 10:42:59;;;;;;;7.40;0.70;;;4.80;87.40;;;;;;4914769;29;20114;-83
2021/04/06 10:45:27;;;;;;;7.07;0.75;;;4.80;88.20;;;;;;4913017;28;20403;-83
2021/04/06 10:48:03;;;;;;;6.35;1.27;;;4.50;82.70;;;;;;4930279;29;20028;-83
2021/04/06 10:50:30;;;;;;;7.72;0.30;;;4.10;84.50;;;;;;4930288;29;20024;-84
2021/04/06 10:52:56;;;;;;;1.45;0.00;;;3.70;85.30;;;;;;4913399;29;20032;-83
2021/04/06 10:55:36;;;;;;;1.25;0.10;;;3.50;86.70;;;;;;4913569;28;20059;-84
2021/04/06 10:58:02;;;;;;;0.77;0.10;;;3.50;88.30;;;;;;4913316;29;20097;-84
2021/04/06 11:00:29;;;;;;;0.50;0.10;;;3.50;87.90;;;;;;4912031;28;20044;-83
2021/04/06 11:03:09;;;;;;;0.70;0.10;;;3.50;87.30;;;;;;4910847;29;20365;-83
2021/04/06 11:05:35;;;;;;;2.88;0.40;;;3.70;88.50;;;;;;4908366;29;20465;-83
2021/04/06 11:08:20;;;;;;;3.13;0.17;;;4.00;88.20;;;;;;4911959;29;20070;-83
2021/04/06 11:10:49;;;;;;;0.95;0.20;;;4.30;87.40;;;;;;4926308;29;20028;-83
2021/04/06 11:13:14;;;;;;;3.42;0.30;;;4.50;84.10;;;;;;4908335;29;20402;-83
2021/04/06 11:15:41;;;;;;;2.78;0.30;;;4.70;84.70;;;;;;4910589;28;20111;-83
2021/04/06 11:18:07;;;;;;;4.65;0.20;;;4.90;81.20;;;;;;4926114;29;20087;-83
2021/04/06 11:20:33;;;;;;;2.97;0.30;;;5.10;83.10;;;;;;4911121;29;20063;-83
2021/04/06 11:22:58;;;;;;;6.13;0.70;;;5.40;80.80;;;;;;4913375;28;20052;-83
2021/04/06 11:25:24;;;;;;;2.00;0.30;;;5.60;79.50;;;;;;4910346;28;20039;-83
2021/04/06 11:27:51;;;;;;;4.97;0.20;;;5.70;76.90;;;;;;4910549;28;20514;-83
2021/04/06 11:30:17;;;;;;;3.45;0.28;;;5.80;76.70;;;;;;4917412;29;20028;-83
2021/04/06 11:32:42;;;;;;;2.92;0.30;;;5.70;76.00;;;;;;4911462;29;20039;-82
2021/04/06 11:35:08;;;;;;;3.15;0.55;;;5.60;78.90;;;;;;4926009;29;20389;-83
2021/04/06 11:37:34;;;;;;;5.07;0.40;;;5.50;79.20;;;;;;4895983;29;20136;-83
2021/04/06 11:40:00;;;;;;;2.95;0.30;;;5.30;81.20;;;;;;4898839;28;20120;-83
2021/04/06 11:42:26;;;;;;;7.32;0.32;;;5.30;82.30;;;;;;4912773;29;20028;-83
2021/04/06 11:44:51;;;;;;;5.68;0.40;;;5.40;82.70;;;;;;4911826;29;20035;-83
2021/04/06 11:47:17;;;;;;;2.17;0.20;;;5.40;79.10;;;;;;4915147;29;20103;-83
2021/04/06 11:49:43;;;;;;;3.22;0.28;;;5.50;77.10;;;;;;4914076;28;20032;-80
2021/04/06 11:52:09;;;;;;;2.78;0.20;;;5.60;76.30;;;;;;4912409;28;20492;-83
2021/04/06 11:54:35;;;;;;;1.95;0.15;;;5.70;72.90;;;;;;4912794;28;20025;-82
2021/04/06 11:57:02;;;;;;;5.68;0.28;;;5.90;74.30;;;;;;4914352;28;20135;-82
2021/04/06 11:59:29;;;;;;;2.80;0.13;;;6.40;75.20;;;;;;4914474;28;20504;-83
2021/04/06 12:01:56;;;;;;;4.68;0.22;;;6.50;70.10;;;;;;4943463;28;20024;-82
2021/04/06 12:04:21;;;;;;;3.20;0.30;;;6.50;69.60;;;;;;4913890;29;20492;-83
2021/04/06 12:06:47;;;;;;;3.20;0.20;;;6.20;71.70;;;;;;4913671;29;20027;-83
2021/04/06 12:09:12;;;;;;;3.83;0.60;;;5.10;73.50;;;;;;4914315;28;20024;-83
2021/04/06 12:11:41;;;;;;;4.30;0.20;;;3.90;77.70;;;;;;4930106;29;20496;-82
2021/04/06 12:14:07;;;;;;;2.70;0.20;;;3.00;82.70;;;;;;4925732;29;20115;-81
2021/04/06 12:16:33;;;;;;;3.05;0.10;;;2.60;85.30;;;;;;4914155;29;20487;-81
2021/04/06 12:18:58;;;;;;;6.32;0.30;;;2.40;87.80;;;;;;4915398;29;20139;-81
2021/04/06 12:21:24;;;;;;;3.65;0.40;;;2.40;90.40;;;;;;4913011;28;20384;-81
2021/04/06 12:23:49;;;;;;;3.08;0.40;;;2.40;91.00;;;;;;4926826;28;20062;-82
2021/04/06 12:26:15;;;;;;;5.85;0.85;;;2.40;91.50;;;;;;4914166;28;20075;-82
2021/04/06 12:28:41;;;;;;;2.53;0.28;;;2.50;91.70;;;;;;4911661;28;20085;-82
2021/04/06 12:31:07;;;;;;;6.18;0.47;;;2.50;91.70;;;;;;4912794;29;20036;-82
2021/04/06 12:33:33;;;;;;;5.40;0.80;;;2.60;91.20;;;;;;4911275;29;20492;-82
2021/04/06 12:36:00;;;;;;;3.35;0.20;;;2.70;91.20;;;;;;4909031;28;20033;-83
2021/04/06 12:38:25;;;;;;;0.70;0.10;;;2.80;91.50;;;;;;4916663;28;20047;-84
2021/04/06 12:40:51;;;;;;;1.95;0.20;;;2.90;91.60;;;;;;4910354;29;20024;-83
2021/04/06 12:43:17;;;;;;;3.30;0.10;;;3.00;91.60;;;;;;4907952;28;20024;-83
2021/04/06 12:45:43;;;;;;;1.42;0.28;;;3.10;90.80;;;;;;4914920;29;20040;-83
2021/04/06 12:48:08;;;;;;;0.22;0.00;;;3.30;90.10;;;;;;4914970;29;20020;-82
2021/04/06 12:50:34;;;;;;;2.47;0.20;;;3.60;90.20;;;;;;4910766;29;20074;-83
2021/04/06 12:53:00;;;;;;;4.97;0.25;;;3.80;86.20;;;;;;4911394;28;20079;-82
2021/04/06 12:55:27;;;;;;;1.67;0.15;;;3.90;86.30;;;;;;4912485;28;20035;-82
2021/04/06 12:57:54;;;;;;;2.03;0.15;;;4.30;86.60;;;;;;4922239;29;20047;-82
2021/04/06 13:00:21;;;;;;;1.27;0.20;;;4.50;85.90;;;;;;4928683;28;20513;-82
2021/04/06 13:02:46;;;;;;;2.58;0.22;;;4.80;84.20;;;;;;4912744;28;20050;-82
2021/04/06 13:05:13;;;;;;;3.00;0.55;;;5.00;82.20;;;;;;4914423;29;20477;-82
2021/04/06 13:07:39;;;;;;;2.72;0.30;;;5.20;79.80;;;;;;4915541;28;20369;-82